Time;durP1;ratioP1;P1;durP2;ratioP2;P2;SDS_P1;SDS_P2;PMS_P1;PMS_P2;Temp;Humidity;BMP_temperature;BMP_pressure;BME280_temperature;BME280_humidity;BME280_pressure;Samples;Min_cycle;Max_cycle;Signal;HPM_P1;HPM_P2
2023/08/19 00:01:18;;;;;;;27.70;25.02;;;21.70;83.50;;;;;;5032964;28;20044;-74
2023/08/19 00:03:44;;;;;;;25.88;23.60;;;21.70;83.60;;;;;;5032761;28;20480;-74
2023/08/19 00:06:30;;;;;;;31.90;28.80;;;21.70;83.70;;;;;;5016359;28;20056;-74
2023/08/19 00:08:55;;;;;;;26.80;24.35;;;21.70;83.80;;;;;;5032990;28;20047;-74
2023/08/19 00:11:21;;;;;;;25.88;23.58;;;21.70;83.90;;;;;;5016097;28;20475;-74
2023/08/19 00:13:47;;;;;;;24.23;22.02;;;21.70;83.90;;;;;;5032682;28;20041;-74
2023/08/19 00:16:13;;;;;;;23.33;21.17;;;21.70;83.90;;;;;;5032799;28;20059;-74
2023/08/19 00:18:38;;;;;;;18.90;17.23;;;21.70;84.00;;;;;;5032708;28;20428;-74
2023/08/19 00:21:05;;;;;;;15.85;14.45;;;21.60;83.80;;;;;;5032693;28;20052;-73
2023/08/19 00:23:30;;;;;;;17.35;15.85;;;21.60;83.40;;;;;;5032839;28;20049;-74
2023/08/19 00:25:57;;;;;;;16.00;14.40;;;21.60;83.10;;;;;;5033027;28;20133;-74
2023/08/19 00:28:22;;;;;;;14.73;13.43;;;21.60;82.80;;;;;;5016560;28;20037;-74
2023/08/19 00:30:48;;;;;;;13.00;11.90;;;21.60;82.40;;;;;;5033352;28;20575;-74
2023/08/19 00:33:14;;;;;;;19.45;17.75;;;21.60;82.10;;;;;;5016889;28;20079;-74
2023/08/19 00:35:42;;;;;;;21.13;19.08;;;21.60;82.00;;;;;;5035634;28;20119;-74
2023/08/19 00:38:08;;;;;;;18.08;16.48;;;21.60;82.10;;;;;;5021704;28;20048;-73
2023/08/19 00:40:34;;;;;;;18.63;17.02;;;21.60;82.10;;;;;;5025653;28;20080;-73
2023/08/19 00:42:59;;;;;;;20.30;18.35;;;21.60;82.20;;;;;;5023444;28;20051;-73
2023/08/19 00:45:25;;;;;;;23.10;20.75;;;21.60;82.40;;;;;;5040000;28;20037;-75
2023/08/19 00:47:51;;;;;;;24.50;22.20;;;21.60;83.10;;;;;;5040218;28;20045;-73
2023/08/19 00:50:18;;;;;;;26.88;24.48;;;21.50;82.90;;;;;;5039160;28;20460;-74
2023/08/19 00:52:45;;;;;;;27.38;24.85;;;21.50;83.30;;;;;;5039154;28;20052;-74
2023/08/19 00:55:10;;;;;;;26.58;24.02;;;21.60;83.60;;;;;;5038069;28;20139;-74
2023/08/19 00:57:37;;;;;;;26.65;24.20;;;21.50;84.10;;;;;;5019629;28;20119;-74
2023/08/19 01:00:04;;;;;;;26.17;23.75;;;21.50;84.00;;;;;;5036005;28;20503;-74
2023/08/19 01:02:30;;;;;;;26.65;24.05;;;21.50;84.20;;;;;;5035951;28;20152;-74
2023/08/19 01:04:56;;;;;;;29.08;26.20;;;21.50;84.40;;;;;;5019242;28;20437;-74
2023/08/19 01:07:31;;;;;;;28.65;25.98;;;21.40;84.70;;;;;;5036100;28;20205;-74
2023/08/19 01:10:03;;;;;;;27.17;24.67;;;21.40;84.90;;;;;;5035599;28;20392;-74
2023/08/19 01:13:03;;;;;;;28.70;25.98;;;21.40;85.10;;;;;;5035508;28;20052;-74
2023/08/19 01:15:34;;;;;;;26.75;24.13;;;21.30;85.10;;;;;;5035504;28;20037;-74
2023/08/19 01:18:02;;;;;;;29.45;26.52;;;21.30;85.40;;;;;;5035797;28;20091;-74
2023/08/19 01:20:31;;;;;;;27.25;24.73;;;21.30;85.50;;;;;;5035751;28;20044;-74
2023/08/19 01:23:05;;;;;;;25.25;22.92;;;21.30;85.50;;;;;;5035576;28;20041;-74
2023/08/19 01:25:32;;;;;;;28.67;26.08;;;21.30;85.60;;;;;;5035789;28;20120;-74
2023/08/19 01:28:04;;;;;;;26.52;24.13;;;21.30;85.60;;;;;;5019207;28;20166;-74
2023/08/19 01:30:31;;;;;;;28.50;25.73;;;21.30;85.70;;;;;;5002957;28;20400;-74
2023/08/19 01:32:57;;;;;;;26.73;24.15;;;21.30;85.70;;;;;;5035164;28;20041;-74
2023/08/19 01:35:24;;;;;;;27.00;24.52;;;21.30;85.80;;;;;;5019007;28;20069;-74
2023/08/19 01:38:02;;;;;;;24.55;22.38;;;21.20;85.80;;;;;;5015335;28;20057;-74
2023/08/19 01:40:30;;;;;;;25.42;23.10;;;21.30;85.90;;;;;;5032323;28;20049;-74
2023/08/19 01:42:58;;;;;;;24.55;22.35;;;21.30;85.90;;;;;;5015447;28;20049;-74
2023/08/19 01:45:24;;;;;;;25.60;23.17;;;21.30;85.90;;;;;;5032218;28;20481;-74
2023/08/19 01:47:53;;;;;;;26.83;24.20;;;21.20;86.30;;;;;;5015486;28;20053;-74
2023/08/19 01:50:19;;;;;;;23.20;21.13;;;21.20;85.80;;;;;;5015147;28;20128;-74
2023/08/19 01:52:45;;;;;;;27.13;24.58;;;21.30;85.80;;;;;;5015276;28;20045;-74
2023/08/19 01:55:11;;;;;;;20.30;18.50;;;21.20;85.90;;;;;;4999023;28;20373;-74
2023/08/19 01:57:37;;;;;;;21.83;19.80;;;21.20;85.60;;;;;;5014974;28;20041;-74
2023/08/19 02:00:04;;;;;;;19.60;17.85;;;21.20;85.60;;;;;;5031306;28;20164;-74
2023/08/19 02:02:30;;;;;;;16.40;14.90;;;21.20;85.50;;;;;;5031556;28;20240;-74
2023/08/19 02:04:55;;;;;;;18.17;16.38;;;21.20;85.30;;;;;;5031063;28;20441;-74
2023/08/19 02:07:21;;;;;;;20.80;18.85;;;21.20;85.10;;;;;;5031269;28;20052;-74
2023/08/19 02:09:47;;;;;;;20.58;18.73;;;21.20;84.90;;;;;;5030958;28;20370;-74
2023/08/19 02:12:13;;;;;;;24.20;21.90;;;21.20;84.90;;;;;;5014547;28;20049;-74
2023/08/19 02:14:38;;;;;;;23.02;20.83;;;21.20;84.90;;;;;;5014416;28;20047;-74
2023/08/19 02:17:04;;;;;;;25.55;23.02;;;21.20;84.90;;;;;;4998181;28;20056;-74
2023/08/19 02:19:30;;;;;;;22.00;20.00;;;21.20;84.90;;;;;;5014681;28;20055;-74
2023/08/19 02:21:55;;;;;;;25.33;22.95;;;21.20;85.00;;;;;;5031261;28;20473;-74
2023/08/19 02:24:21;;;;;;;24.98;22.58;;;21.20;85.10;;;;;;5031437;28;20045;-74
2023/08/19 02:26:47;;;;;;;24.63;22.33;;;21.20;85.10;;;;;;5014623;28;20083;-74
2023/08/19 02:29:12;;;;;;;21.20;19.25;;;21.20;85.20;;;;;;5030925;28;20128;-74
2023/08/19 02:31:38;;;;;;;26.80;24.20;;;21.20;85.20;;;;;;5015240;28;20052;-74
2023/08/19 02:34:04;;;;;;;25.52;23.10;;;21.20;85.30;;;;;;5031568;28;20056;-74
2023/08/19 02:36:31;;;;;;;26.45;23.80;;;21.20;85.80;;;;;;5014453;28;20065;-74
2023/08/19 02:38:58;;;;;;;25.88;23.30;;;21.20;85.50;;;;;;5031705;28;20515;-74
2023/08/19 02:41:24;;;;;;;26.45;23.73;;;21.20;85.60;;;;;;5031389;28;20041;-74
2023/08/19 02:43:50;;;;;;;25.05;22.75;;;21.10;85.70;;;;;;4999416;28;20421;-74
2023/08/19 02:46:16;;;;;;;25.65;23.35;;;21.10;85.70;;;;;;5031303;28;20045;-74
2023/08/19 02:48:41;;;;;;;25.50;23.05;;;21.10;85.70;;;;;;5030814;28;20118;-74
2023/08/19 02:51:07;;;;;;;25.42;23.05;;;21.10;85.80;;;;;;4998062;28;20052;-74
2023/08/19 02:53:33;;;;;;;25.95;23.60;;;21.10;85.90;;;;;;5030474;28;20046;-74
2023/08/19 02:55:59;;;;;;;26.27;23.58;;;21.10;86.00;;;;;;5014027;28;20064;-74
2023/08/19 02:58:25;;;;;;;26.00;23.67;;;21.00;86.00;;;;;;5014355;28;20068;-74
2023/08/19 03:00:51;;;;;;;25.63;23.20;;;21.00;86.20;;;;;;5029873;28;20057;-74
2023/08/19 03:03:17;;;;;;;24.67;22.30;;;21.10;86.30;;;;;;5030688;28;20053;-74
2023/08/19 03:05:43;;;;;;;23.58;21.52;;;21.10;86.30;;;;;;5030600;28;20327;-74
2023/08/19 03:08:10;;;;;;;25.27;22.88;;;21.00;86.20;;;;;;5030278;28;20140;-74
2023/08/19 03:10:37;;;;;;;22.90;20.80;;;21.00;86.20;;;;;;5030427;28;20061;-74
2023/08/19 03:13:03;;;;;;;23.52;21.17;;;21.00;86.30;;;;;;5014046;28;20041;-74
2023/08/19 03:15:30;;;;;;;22.83;20.63;;;21.00;86.20;;;;;;5013699;28;20037;-74
2023/08/19 03:17:55;;;;;;;24.38;21.92;;;21.00;86.20;;;;;;5030510;28;20392;-74
2023/08/19 03:20:21;;;;;;;20.00;18.15;;;21.00;86.20;;;;;;5013639;28;20121;-74
2023/08/19 03:22:47;;;;;;;21.85;19.77;;;21.00;86.20;;;;;;5030115;28;20103;-74
2023/08/19 03:25:13;;;;;;;23.50;21.25;;;21.00;86.10;;;;;;5013776;28;20099;-74
2023/08/19 03:27:39;;;;;;;23.13;21.10;;;21.00;86.10;;;;;;5030090;28;20041;-74
2023/08/19 03:30:05;;;;;;;22.23;20.17;;;21.00;86.00;;;;;;5029983;28;20046;-74
2023/08/19 03:32:31;;;;;;;24.17;21.75;;;21.00;86.00;;;;;;5013346;28;20076;-74
2023/08/19 03:34:57;;;;;;;23.98;21.63;;;21.00;86.00;;;;;;5030157;28;20103;-75
2023/08/19 03:37:23;;;;;;;23.30;21.15;;;21.00;86.10;;;;;;5029541;28;20586;-74
2023/08/19 03:39:49;;;;;;;22.65;20.50;;;21.00;86.10;;;;;;5013534;28;20051;-74
2023/08/19 03:42:17;;;;;;;22.48;20.35;;;21.00;86.10;;;;;;5029687;28;20045;-74
2023/08/19 03:44:42;;;;;;;21.02;19.13;;;21.00;86.10;;;;;;5029739;28;20453;-74
2023/08/19 03:47:12;;;;;;;23.95;21.67;;;21.00;86.20;;;;;;5029339;28;20107;-74
2023/08/19 03:49:38;;;;;;;23.17;21.02;;;21.00;86.30;;;;;;5029887;28;20334;-74
2023/08/19 03:52:07;;;;;;;23.20;21.10;;;21.00;86.30;;;;;;4996998;28;20040;-74
2023/08/19 03:54:34;;;;;;;22.70;20.48;;;21.00;86.30;;;;;;5013215;28;20048;-74
2023/08/19 03:56:59;;;;;;;24.48;22.25;;;21.00;86.20;;;;;;5013267;28;20041;-74
2023/08/19 03:59:25;;;;;;;25.08;22.60;;;21.00;86.20;;;;;;5029407;28;20045;-74
2023/08/19 04:01:52;;;;;;;24.60;22.02;;;21.00;86.30;;;;;;5029655;28;20034;-74
2023/08/19 04:04:17;;;;;;;22.55;20.48;;;21.00;86.40;;;;;;5029588;28;20103;-74
2023/08/19 04:06:43;;;;;;;23.52;21.20;;;21.00;86.90;;;;;;5013041;28;20137;-74
2023/08/19 04:09:09;;;;;;;24.27;21.88;;;21.00;86.40;;;;;;5029713;28;20128;-74
2023/08/19 04:11:37;;;;;;;21.48;19.38;;;21.00;86.40;;;;;;5029410;28;20045;-74
2023/08/19 04:14:03;;;;;;;21.08;19.00;;;21.00;86.40;;;;;;5031528;28;20115;-74
2023/08/19 04:16:28;;;;;;;24.15;21.73;;;21.00;86.50;;;;;;5033617;28;20454;-74
2023/08/19 04:18:54;;;;;;;23.75;21.55;;;21.00;86.50;;;;;;5033081;28;20209;-74
2023/08/19 04:21:20;;;;;;;22.23;20.17;;;21.00;86.60;;;;;;5033457;28;20041;-74
2023/08/19 04:23:46;;;;;;;23.75;21.45;;;21.00;86.60;;;;;;5033080;28;20041;-74
2023/08/19 04:26:11;;;;;;;23.67;21.50;;;21.00;86.60;;;;;;5033027;28;20207;-74
2023/08/19 04:28:37;;;;;;;24.75;22.20;;;21.00;86.60;;;;;;5033483;28;20057;-74
2023/08/19 04:31:04;;;;;;;23.30;20.85;;;21.10;86.70;;;;;;5032892;28;20536;-74
2023/08/19 04:33:30;;;;;;;22.27;20.05;;;21.10;86.80;;;;;;5033044;28;20316;-74
2023/08/19 04:35:56;;;;;;;22.60;20.50;;;21.10;86.70;;;;;;5032974;28;20041;-74
2023/08/19 04:38:22;;;;;;;21.52;19.42;;;21.10;86.70;;;;;;5036542;28;20047;-74
2023/08/19 04:40:48;;;;;;;22.00;19.80;;;21.10;86.60;;;;;;5036611;28;20037;-74
2023/08/19 04:43:13;;;;;;;20.27;18.25;;;21.20;86.70;;;;;;5036653;28;20105;-74
2023/08/19 04:45:39;;;;;;;20.05;18.02;;;21.20;86.60;;;;;;5020163;28;20041;-74
2023/08/19 04:48:06;;;;;;;20.10;18.08;;;21.20;86.60;;;;;;5036711;28;20041;-74
2023/08/19 04:50:34;;;;;;;19.00;17.23;;;21.20;86.60;;;;;;5036509;28;20070;-74
2023/08/19 04:53:00;;;;;;;19.88;17.90;;;21.20;86.50;;;;;;5019756;28;20469;-74
2023/08/19 04:55:27;;;;;;;19.10;17.20;;;21.30;86.40;;;;;;5019935;28;20032;-75
2023/08/19 04:57:52;;;;;;;19.33;17.50;;;21.30;86.40;;;;;;5036626;28;20388;-74
2023/08/19 05:00:18;;;;;;;19.70;17.73;;;21.30;86.30;;;;;;5036450;28;20155;-74
2023/08/19 05:02:44;;;;;;;17.60;15.95;;;21.30;86.30;;;;;;5036452;28;20466;-75
2023/08/19 05:05:10;;;;;;;17.05;15.50;;;21.40;86.30;;;;;;5036938;28;20051;-74
2023/08/19 05:07:35;;;;;;;17.88;16.00;;;21.40;86.30;;;;;;5037071;28;20103;-74
2023/08/19 05:10:01;;;;;;;20.45;17.40;;;21.40;86.20;;;;;;5037081;28;20448;-74
2023/08/19 05:12:27;;;;;;;18.55;16.70;;;21.50;86.00;;;;;;5036770;28;20048;-74
2023/08/19 05:14:53;;;;;;;18.25;16.45;;;21.50;85.80;;;;;;5020566;28;20048;-74
2023/08/19 05:17:18;;;;;;;17.85;16.15;;;21.60;85.70;;;;;;5037133;28;20538;-74
2023/08/19 05:19:44;;;;;;;17.15;15.45;;;21.60;85.60;;;;;;5036496;28;20041;-74
2023/08/19 05:22:10;;;;;;;16.73;15.07;;;21.60;85.40;;;;;;5036426;28;20068;-74
2023/08/19 05:24:36;;;;;;;17.27;15.55;;;21.70;85.40;;;;;;5035477;28;20033;-75
2023/08/19 05:27:02;;;;;;;16.85;15.15;;;21.70;85.10;;;;;;5019696;28;20041;-74
2023/08/19 05:29:28;;;;;;;16.65;15.05;;;21.70;85.00;;;;;;5003035;28;20469;-74
2023/08/19 05:31:54;;;;;;;18.90;15.65;;;21.70;84.80;;;;;;5035896;28;20059;-74
2023/08/19 05:34:20;;;;;;;17.75;15.73;;;21.70;84.70;;;;;;5035735;28;20068;-75
2023/08/19 05:36:46;;;;;;;16.60;14.82;;;21.80;84.60;;;;;;5018992;28;20334;-75
2023/08/19 05:45:21;;;;;;;14.55;13.07;;;21.80;84.10;;;;;;5022809;23;20413;-73
2023/08/19 05:47:47;;;;;;;14.90;13.50;;;21.80;84.10;;;;;;4926732;28;20047;-73
2023/08/19 05:50:12;;;;;;;14.40;13.00;;;21.90;83.90;;;;;;4942481;28;20527;-72
2023/08/19 05:52:38;;;;;;;14.63;13.23;;;21.90;83.70;;;;;;4958353;28;20105;-73
2023/08/19 05:55:04;;;;;;;14.30;12.95;;;21.90;83.70;;;;;;4958481;28;20050;-73
2023/08/19 05:57:30;;;;;;;13.70;12.30;;;22.00;83.60;;;;;;4942587;28;20408;-73
2023/08/19 05:59:56;;;;;;;14.75;13.25;;;22.00;83.40;;;;;;4958289;28;20046;-73
2023/08/19 06:02:22;;;;;;;13.35;11.88;;;22.10;83.30;;;;;;4958428;28;20035;-73
2023/08/19 06:04:47;;;;;;;15.20;13.38;;;22.00;83.10;;;;;;4942443;28;20074;-73
2023/08/19 06:07:15;;;;;;;14.00;12.23;;;22.10;83.20;;;;;;4926525;28;20085;-73
2023/08/19 06:09:40;;;;;;;15.07;13.45;;;22.10;83.20;;;;;;4958277;28;20046;-73
2023/08/19 06:12:06;;;;;;;15.18;13.57;;;22.10;83.20;;;;;;4942058;28;20482;-74
2023/08/19 06:14:32;;;;;;;14.32;13.00;;;22.10;83.10;;;;;;4926190;28;20129;-73
2023/08/19 06:16:58;;;;;;;14.38;13.07;;;22.10;83.20;;;;;;4957898;28;20046;-73
2023/08/19 06:19:23;;;;;;;14.32;12.80;;;22.10;83.20;;;;;;4957869;28;20038;-73
2023/08/19 06:21:50;;;;;;;14.68;12.95;;;22.10;83.50;;;;;;4941938;28;20182;-73
2023/08/19 06:24:17;;;;;;;14.27;12.80;;;22.10;83.00;;;;;;4958017;28;20129;-72
2023/08/19 06:26:43;;;;;;;15.93;13.88;;;22.10;83.00;;;;;;4957731;28;20039;-73
2023/08/19 06:29:08;;;;;;;15.15;12.57;;;22.20;83.10;;;;;;4957886;28;20045;-73
2023/08/19 06:31:34;;;;;;;14.23;12.73;;;22.10;83.10;;;;;;4957860;28;20393;-73
2023/08/19 06:34:00;;;;;;;13.70;12.30;;;22.10;83.20;;;;;;4941512;28;20566;-73
2023/08/19 06:36:28;;;;;;;14.30;12.85;;;22.10;83.20;;;;;;4956678;28;20078;-73
2023/08/19 06:39:07;;;;;;;14.50;12.85;;;22.10;83.20;;;;;;4941632;28;20050;-73
2023/08/19 06:41:35;;;;;;;14.73;12.43;;;22.20;83.10;;;;;;4957358;28;20050;-73
2023/08/19 06:44:03;;;;;;;13.93;11.98;;;22.20;83.00;;;;;;4922703;29;20043;-73
2023/08/19 06:46:30;;;;;;;13.25;11.80;;;22.20;83.00;;;;;;4937953;29;20175;-73
2023/08/19 06:48:57;;;;;;;12.73;10.63;;;22.20;82.80;;;;;;4922249;28;20487;-73
2023/08/19 06:51:24;;;;;;;12.32;11.13;;;22.30;82.90;;;;;;4938060;28;20058;-73
2023/08/19 06:53:50;;;;;;;12.73;11.45;;;22.30;82.70;;;;;;4938098;29;20053;-73
2023/08/19 06:56:23;;;;;;;12.95;11.02;;;22.30;82.60;;;;;;4938259;29;20554;-73
2023/08/19 06:58:54;;;;;;;13.95;11.90;;;22.40;82.60;;;;;;4938279;29;20098;-73
2023/08/19 07:01:26;;;;;;;15.05;11.07;;;22.40;82.40;;;;;;4938451;29;20066;-73
2023/08/19 07:03:53;;;;;;;12.43;11.15;;;22.40;82.20;;;;;;4937912;28;20050;-73
2023/08/19 07:06:22;;;;;;;14.02;11.23;;;22.50;82.10;;;;;;4938033;29;20398;-73
2023/08/19 07:08:48;;;;;;;13.98;10.98;;;22.50;81.90;;;;;;4938191;29;20070;-73
2023/08/19 07:11:15;;;;;;;13.13;11.80;;;22.60;82.00;;;;;;4937880;28;20130;-73
2023/08/19 07:13:42;;;;;;;13.48;10.98;;;22.60;81.90;;;;;;4937700;29;20066;-73
2023/08/19 07:16:12;;;;;;;13.25;10.68;;;22.70;81.90;;;;;;4937834;29;20047;-73
2023/08/19 07:18:46;;;;;;;12.30;10.07;;;22.70;81.70;;;;;;4937929;29;20113;-73
2023/08/19 07:21:13;;;;;;;11.00;9.93;;;22.70;81.50;;;;;;4937644;29;20043;-73
2023/08/19 07:23:46;;;;;;;13.80;10.60;;;22.70;81.40;;;;;;4937878;29;20066;-73
2023/08/19 07:26:12;;;;;;;13.10;9.70;;;22.80;81.30;;;;;;4906029;29;20043;-73
2023/08/19 07:28:38;;;;;;;11.63;10.27;;;22.80;81.30;;;;;;4953495;29;20073;-73
2023/08/19 07:31:04;;;;;;;11.70;9.63;;;22.80;81.20;;;;;;4921799;29;20498;-73
2023/08/19 07:33:30;;;;;;;11.93;10.63;;;22.90;81.00;;;;;;4937431;29;20054;-73
2023/08/19 07:35:56;;;;;;;12.75;10.55;;;22.90;81.00;;;;;;4921784;29;20043;-73
2023/08/19 07:38:22;;;;;;;11.07;9.98;;;23.00;81.20;;;;;;4921746;29;20135;-73
2023/08/19 07:40:47;;;;;;;13.55;10.20;;;23.00;81.00;;;;;;4921995;29;20039;-73
2023/08/19 07:43:13;;;;;;;13.75;10.30;;;23.00;80.90;;;;;;4937635;28;20486;-73
2023/08/19 07:45:40;;;;;;;11.43;9.27;;;23.10;80.80;;;;;;4912136;29;20085;-74
2023/08/19 07:48:05;;;;;;;11.80;9.85;;;23.10;80.50;;;;;;4901703;29;20050;-74
2023/08/19 07:50:31;;;;;;;11.80;9.82;;;23.20;80.10;;;;;;4903581;29;20052;-74
2023/08/19 07:52:57;;;;;;;11.80;10.25;;;23.20;79.70;;;;;;4919430;29;20139;-73
2023/08/19 07:55:23;;;;;;;11.50;9.50;;;23.30;79.70;;;;;;4903486;29;20044;-73
2023/08/19 07:57:49;;;;;;;12.85;10.55;;;23.30;79.60;;;;;;4919133;29;20040;-73
2023/08/19 08:00:15;;;;;;;12.38;9.43;;;23.30;79.50;;;;;;4919024;29;20048;-74
2023/08/19 08:02:41;;;;;;;9.75;8.75;;;23.40;79.40;;;;;;4919150;29;20515;-73
2023/08/19 08:05:07;;;;;;;11.05;8.75;;;23.50;79.50;;;;;;4903345;29;20047;-73
2023/08/19 08:07:33;;;;;;;9.75;8.75;;;23.50;79.50;;;;;;4919041;29;20044;-73
2023/08/19 08:09:58;;;;;;;10.27;9.27;;;23.60;79.40;;;;;;4918926;29;20107;-74
2023/08/19 08:12:24;;;;;;;10.25;9.27;;;23.60;79.20;;;;;;4918747;29;20054;-74
2023/08/19 08:14:50;;;;;;;10.18;8.70;;;23.60;79.30;;;;;;4903301;29;20187;-74
2023/08/19 08:17:15;;;;;;;11.43;8.82;;;23.70;79.20;;;;;;4918742;29;20528;-73
2023/08/19 08:19:41;;;;;;;9.50;8.50;;;23.80;79.00;;;;;;4918854;29;20050;-73
2023/08/19 08:22:07;;;;;;;10.18;8.70;;;23.80;78.90;;;;;;4918626;29;20044;-73
2023/08/19 08:24:33;;;;;;;8.88;7.97;;;23.90;79.00;;;;;;4918777;29;20111;-74
2023/08/19 08:27:14;;;;;;;9.27;8.27;;;24.00;78.90;;;;;;4887302;29;20044;-73
2023/08/19 08:29:39;;;;;;;11.35;8.65;;;24.00;79.00;;;;;;4903167;29;20071;-73
2023/08/19 08:32:05;;;;;;;11.43;8.35;;;24.10;79.00;;;;;;4918608;29;20472;-73
2023/08/19 08:34:31;;;;;;;11.93;9.05;;;24.20;78.70;;;;;;4918550;29;20044;-73
2023/08/19 08:36:57;;;;;;;14.13;9.15;;;24.30;78.10;;;;;;4918784;29;20040;-74
2023/08/19 08:39:22;;;;;;;9.65;8.15;;;24.40;77.60;;;;;;4918457;29;20488;-73
2023/08/19 08:41:50;;;;;;;8.77;7.68;;;24.40;77.40;;;;;;4903045;29;20126;-73
2023/08/19 08:44:16;;;;;;;9.07;7.10;;;24.50;77.30;;;;;;4918247;29;20492;-74
2023/08/19 08:46:43;;;;;;;8.40;7.45;;;24.60;77.10;;;;;;4932746;29;20055;-74
2023/08/19 08:49:09;;;;;;;9.25;7.90;;;24.70;77.00;;;;;;4921401;29;20106;-73
2023/08/19 08:51:36;;;;;;;8.48;7.57;;;24.80;76.80;;;;;;4937244;29;20047;-73
2023/08/19 08:54:05;;;;;;;8.10;7.30;;;24.80;76.40;;;;;;4937066;29;20102;-74
2023/08/19 08:56:31;;;;;;;9.63;7.57;;;24.90;76.20;;;;;;4937200;29;20040;-74
2023/08/19 08:58:57;;;;;;;9.43;8.00;;;25.00;75.60;;;;;;4936271;29;20134;-74
2023/08/19 09:01:24;;;;;;;10.13;8.43;;;25.00;75.50;;;;;;4921530;29;20126;-73
2023/08/19 09:03:52;;;;;;;8.75;7.53;;;25.10;75.50;;;;;;4937032;29;20040;-73
2023/08/19 09:06:19;;;;;;;11.15;8.85;;;25.10;75.20;;;;;;4936894;29;20047;-73
2023/08/19 09:09:03;;;;;;;9.30;8.13;;;25.20;75.30;;;;;;4936727;29;20088;-73
2023/08/19 09:11:35;;;;;;;8.10;6.80;;;25.30;74.70;;;;;;4937091;29;20063;-74
2023/08/19 09:14:17;;;;;;;10.57;8.38;;;25.30;74.90;;;;;;4936721;29;20040;-74
2023/08/19 09:16:43;;;;;;;11.98;8.85;;;25.40;74.90;;;;;;4936772;29;20506;-73
2023/08/19 09:19:09;;;;;;;8.80;7.90;;;25.40;74.80;;;;;;4936651;29;20044;-73
2023/08/19 09:21:35;;;;;;;13.65;9.07;;;25.50;74.50;;;;;;4936876;29;20047;-74
2023/08/19 09:24:00;;;;;;;11.85;7.90;;;25.50;73.80;;;;;;4920748;29;20047;-72
2023/08/19 09:26:26;;;;;;;8.57;7.68;;;25.60;74.00;;;;;;4936584;29;20048;-72
2023/08/19 09:28:59;;;;;;;12.52;8.45;;;25.60;74.00;;;;;;4935958;29;20095;-73
2023/08/19 09:31:26;;;;;;;8.85;7.13;;;25.70;73.60;;;;;;4936736;29;20058;-73
2023/08/19 09:33:52;;;;;;;9.48;7.55;;;25.70;73.80;;;;;;4936309;29;20046;-73
2023/08/19 09:36:24;;;;;;;9.68;8.27;;;25.70;74.50;;;;;;4936552;29;20114;-73
2023/08/19 09:38:57;;;;;;;10.23;7.93;;;25.70;74.40;;;;;;4936202;29;20043;-73
2023/08/19 09:41:28;;;;;;;10.13;8.70;;;25.80;74.50;;;;;;4936227;29;20513;-73
2023/08/19 09:43:55;;;;;;;9.50;8.60;;;25.70;74.80;;;;;;4920197;29;20082;-74
2023/08/19 09:46:28;;;;;;;11.43;8.93;;;25.70;75.00;;;;;;4936084;29;20119;-74
2023/08/19 09:48:57;;;;;;;15.65;8.63;;;25.70;75.50;;;;;;4936206;29;20044;-74
2023/08/19 09:51:23;;;;;;;11.15;10.02;;;25.70;76.40;;;;;;4936433;29;20372;-74
2023/08/19 09:53:49;;;;;;;10.15;9.15;;;25.70;76.90;;;;;;4935961;29;20048;-74
2023/08/19 09:56:41;;;;;;;12.10;9.30;;;25.60;77.00;;;;;;4935997;29;20131;-74
2023/08/19 09:59:08;;;;;;;10.88;9.30;;;25.50;77.10;;;;;;4933028;29;20139;-74
2023/08/19 10:01:34;;;;;;;11.63;10.52;;;25.40;77.50;;;;;;4935560;29;20054;-74
2023/08/19 10:04:00;;;;;;;10.60;9.40;;;25.40;78.30;;;;;;4904272;29;20122;-74
2023/08/19 10:06:28;;;;;;;8.40;7.60;;;25.40;78.60;;;;;;4901046;29;20127;-73
2023/08/19 10:09:01;;;;;;;10.55;9.48;;;25.30;78.60;;;;;;4930369;29;20039;-74
2023/08/19 10:11:31;;;;;;;14.00;10.37;;;25.30;79.40;;;;;;4935733;29;20047;-75
2023/08/19 10:14:03;;;;;;;11.00;9.90;;;25.30;79.70;;;;;;4925654;29;20044;-74
2023/08/19 10:16:32;;;;;;;12.38;11.20;;;25.20;79.80;;;;;;4924133;29;20040;-74
2023/08/19 10:19:00;;;;;;;11.60;10.40;;;25.20;80.30;;;;;;4935666;29;20051;-73
2023/08/19 10:21:30;;;;;;;12.48;10.45;;;25.20;80.90;;;;;;4935498;29;20043;-74
2023/08/19 10:23:57;;;;;;;12.43;11.02;;;25.20;81.00;;;;;;4935797;29;20055;-74
2023/08/19 10:26:23;;;;;;;12.93;11.15;;;25.20;81.40;;;;;;4935522;29;20044;-74
2023/08/19 10:29:09;;;;;;;12.63;11.32;;;25.20;81.70;;;;;;4948832;29;20512;-75
2023/08/19 10:31:35;;;;;;;11.38;9.77;;;25.20;81.70;;;;;;4954428;29;20102;-74
2023/08/19 10:34:22;;;;;;;11.55;10.23;;;25.20;82.10;;;;;;4938470;29;20047;-74
2023/08/19 10:37:28;;;;;;;12.32;11.13;;;25.30;82.10;;;;;;4954467;29;20051;-74
2023/08/19 10:40:07;;;;;;;11.57;10.45;;;25.30;82.10;;;;;;4878040;29;20046;-74
2023/08/19 10:42:35;;;;;;;11.48;10.40;;;25.40;82.30;;;;;;4918044;29;20052;-75
2023/08/19 10:45:01;;;;;;;12.13;10.88;;;25.40;82.40;;;;;;4906795;29;20115;-73
2023/08/19 10:47:26;;;;;;;12.85;11.55;;;25.40;82.20;;;;;;4934803;29;20083;-73
2023/08/19 10:50:01;;;;;;;12.98;11.60;;;25.50;82.30;;;;;;4934948;29;20047;-74
2023/08/19 10:52:28;;;;;;;12.15;11.02;;;25.60;82.00;;;;;;4935178;29;20044;-74
2023/08/19 10:54:57;;;;;;;15.48;11.98;;;25.60;81.80;;;;;;4930979;29;20048;-74
2023/08/19 10:57:27;;;;;;;14.27;12.40;;;25.70;81.30;;;;;;4918376;29;20043;-74
2023/08/19 11:00:08;;;;;;;14.57;11.98;;;25.80;81.60;;;;;;4924509;29;20127;-74
2023/08/19 11:02:36;;;;;;;11.20;10.07;;;26.00;80.60;;;;;;4900247;29;20047;-75
2023/08/19 11:05:03;;;;;;;14.85;13.23;;;26.10;80.90;;;;;;4900298;29;20507;-74
2023/08/19 11:07:29;;;;;;;14.38;12.93;;;26.20;80.50;;;;;;4905664;29;20131;-74
2023/08/19 11:09:56;;;;;;;13.85;12.63;;;26.30;79.90;;;;;;4926956;29;20047;-75
2023/08/19 11:12:23;;;;;;;16.20;14.52;;;26.40;79.30;;;;;;4943947;28;20505;-75
2023/08/19 11:14:51;;;;;;;15.93;14.25;;;26.50;79.00;;;;;;4926281;29;20090;-75
2023/08/19 11:17:19;;;;;;;18.25;16.42;;;26.60;78.80;;;;;;4911896;29;20050;-73
2023/08/19 11:19:48;;;;;;;15.32;13.90;;;26.70;78.90;;;;;;4912819;29;20075;-74
2023/08/19 11:22:15;;;;;;;13.30;12.00;;;26.80;78.60;;;;;;4927870;29;20102;-74
2023/08/19 11:24:41;;;;;;;14.25;12.85;;;27.00;77.60;;;;;;4944512;28;20071;-75
2023/08/19 11:27:07;;;;;;;11.65;10.55;;;27.00;76.90;;;;;;4928117;29;20458;-75
2023/08/19 11:29:36;;;;;;;13.27;11.98;;;27.10;76.00;;;;;;4912195;29;20047;-75
2023/08/19 11:32:01;;;;;;;15.35;13.85;;;27.10;75.50;;;;;;4912906;29;20138;-73
2023/08/19 11:34:29;;;;;;;23.52;21.17;;;27.20;75.20;;;;;;4897245;29;20123;-74
2023/08/19 11:36:54;;;;;;;26.65;24.13;;;27.20;75.10;;;;;;4927547;29;20475;-74
2023/08/19 11:39:20;;;;;;;23.42;21.27;;;27.20;75.10;;;;;;4928335;29;20036;-74
2023/08/19 11:41:49;;;;;;;25.85;23.33;;;27.20;75.00;;;;;;4928402;29;20049;-74
2023/08/19 11:44:14;;;;;;;21.98;19.77;;;27.30;75.00;;;;;;4928156;29;20487;-74
2023/08/19 11:46:40;;;;;;;29.35;26.38;;;27.30;74.70;;;;;;4928014;29;20066;-75
2023/08/19 11:49:09;;;;;;;29.38;26.38;;;27.30;75.10;;;;;;4928294;29;20063;-75
2023/08/19 11:51:39;;;;;;;29.55;26.58;;;27.30;75.10;;;;;;4912803;29;20478;-74
2023/08/19 11:54:10;;;;;;;31.60;28.50;;;27.30;75.00;;;;;;4913337;29;20127;-75
2023/08/19 11:56:52;;;;;;;32.38;29.02;;;27.40;75.10;;;;;;4928336;29;20040;-74
2023/08/19 11:59:27;;;;;;;31.93;28.47;;;27.40;74.50;;;;;;4912654;29;20491;-75
2023/08/19 12:01:53;;;;;;;30.70;27.48;;;27.30;73.80;;;;;;4929602;29;20522;-75
2023/08/19 12:04:18;;;;;;;29.05;24.95;;;27.30;73.20;;;;;;4928444;29;20036;-75
2023/08/19 12:06:46;;;;;;;29.40;26.42;;;27.30;73.00;;;;;;4928052;29;20040;-74
2023/08/19 12:09:13;;;;;;;29.35;25.55;;;27.20;72.70;;;;;;4944476;29;20058;-74
2023/08/19 12:11:39;;;;;;;27.08;24.27;;;27.10;72.80;;;;;;4928209;29;20579;-74
2023/08/19 12:14:06;;;;;;;26.52;23.67;;;27.10;73.00;;;;;;4911651;29;20555;-74
2023/08/19 12:16:31;;;;;;;27.23;24.40;;;27.10;73.00;;;;;;4943784;28;20052;-74
2023/08/19 12:18:57;;;;;;;26.05;23.35;;;27.00;72.80;;;;;;4928323;29;20040;-73
2023/08/19 12:21:24;;;;;;;23.73;21.27;;;27.00;72.60;;;;;;4928463;29;20090;-73
2023/08/19 12:23:50;;;;;;;21.25;17.75;;;26.90;72.50;;;;;;4944017;28;20083;-73
2023/08/19 12:26:16;;;;;;;13.07;11.77;;;26.90;72.50;;;;;;4927998;29;20078;-73
2023/08/19 12:28:43;;;;;;;12.63;9.85;;;26.80;71.10;;;;;;4944013;29;20051;-73
2023/08/19 12:31:09;;;;;;;9.25;7.10;;;26.70;70.10;;;;;;4912334;29;20043;-74
2023/08/19 12:33:36;;;;;;;9.25;7.72;;;26.70;68.90;;;;;;4927559;29;20427;-74
2023/08/19 12:36:01;;;;;;;8.90;7.45;;;26.60;68.40;;;;;;4930870;29;20042;-74
2023/08/19 12:38:27;;;;;;;9.70;8.05;;;26.50;68.20;;;;;;4929945;29;20040;-74